Colbert, Washington
Current Conditions -  °F | °C
As of 8:53 PM on Saturday 22 Nov 2014 (Local Time) from KSFF Reporting Station
Clear Clear  
Wind Chill: 32°   Ceiling: Unl
Heat Index: 32°   Visibility: 10mi
Dew Point: 30°   Wind: 3mph
Humidity: 92%   Direction: 10°N
Pressure: 29.92"   Gusts: NA
Location:  47.83°N, 117.34°W
Report Text: KSFF 230453Z AUTO 01003KT 10SM CLR 00/M01 A2992 RMK AO2 SLP144 T00001011
Loading
Personal Weather Stations






























Interactive Weather Map New forecast layout! Learn more

10-Day Weather Forecast

Advertisements
Track Severe Weather on mobile